Crystal Beach, Canada
Current Conditions -  °F | °C
As of 4:00 AM on Saturday 25 Oct 2014 (Local Time) from CYQA Reporting Station
Overcast Overcast  
Wind Chill: 44°   Ceiling: 1500
Heat Index: 46°   Visibility: 9mi
Dew Point: 45°   Wind: 5mph
Humidity: 93%   Direction: 210°SSW
Pressure: 29.8"   Gusts: NA
Location:  45.05°N, 79.4°W
Report Text: CYQA 250800Z AUTO 21004KT 9SM BKN015 OVC029 08/07 A2980 RMK SLP095
Loading
Personal Weather Stations






























Interactive Weather Map
Tropical Storm Tracking
New forecast layout! Learn more

10-Day Weather Forecast

Advertisements
Track Severe Weather on mobile